createdAt,value
2022-07-28T00:01:35.260Z,12.4
2022-07-28T00:16:37.599Z,12.4
2022-07-28T00:31:39.252Z,12.4
2022-07-28T00:46:38.912Z,12.4
2022-07-28T01:01:40.215Z,12.4
2022-07-28T01:16:40.939Z,12.4
2022-07-28T01:31:41.683Z,12.4
2022-07-28T01:46:44.292Z,12.4
2022-07-28T02:01:45.377Z,12.4
2022-07-28T02:16:44.731Z,12.4
2022-07-28T02:31:46.167Z,12.4
2022-07-28T02:46:46.633Z,12.3
2022-07-28T03:03:08.160Z,12.3
2022-07-28T03:18:09.214Z,12.3
2022-07-28T03:33:10.322Z,12.3
2022-07-28T03:48:09.572Z,12.3
2022-07-28T04:03:45.480Z,12.3
2022-07-28T04:18:13.323Z,12.3
2022-07-28T04:33:13.728Z,12.3
2022-07-28T04:48:14.298Z,12.3
2022-07-28T05:03:14.899Z,12.3
2022-07-28T05:18:44.820Z,12.3
2022-07-28T05:33:16.770Z,12.4
2022-07-28T05:48:18.071Z,12.4
2022-07-28T06:03:19.666Z,12.4
2022-07-28T06:18:20.118Z,12.4
2022-07-28T06:33:20.849Z,12.4
2022-07-28T06:48:30.551Z,12.5
2022-07-28T07:03:23.930Z,12.5
2022-07-28T07:18:24.491Z,12.5
2022-07-28T07:33:24.455Z,12.5
2022-07-28T07:48:27.368Z,12.5
2022-07-28T08:03:29.377Z,12.5
2022-07-28T08:18:29.069Z,12.5
2022-07-28T08:33:28.928Z,12.6
2022-07-28T08:48:32.038Z,12.8
2022-07-28T09:03:06.340Z,13.6
2022-07-28T09:18:06.031Z,13.6
2022-07-28T09:33:09.604Z,13.6
2022-07-28T09:48:22.679Z,13.6
2022-07-28T10:18:09.995Z,13.7
2022-07-28T10:33:11.611Z,13.7
2022-07-28T10:48:28.665Z,13.7
2022-07-28T11:03:19.189Z,13.7
2022-07-28T11:18:13.842Z,13.6
2022-07-28T11:33:18.224Z,13.5
2022-07-28T11:48:15.022Z,13.4
2022-07-28T12:03:58.998Z,13.3
2022-07-28T12:18:48.257Z,13.2
2022-07-28T12:45:17.108Z,12.5
2022-07-28T13:00:18.565Z,12.5
2022-07-28T13:15:19.996Z,12.5
2022-07-28T13:30:48.934Z,12.6
2022-07-28T13:45:52.168Z,12.6
2022-07-28T14:00:26.616Z,12.7
2022-07-28T14:15:23.661Z,12.8
2022-07-28T14:30:23.480Z,13
2022-07-28T14:45:25.876Z,13.1
2022-07-28T15:03:08.083Z,14.3
2022-07-28T15:18:08.592Z,14.3
2022-07-28T15:33:09.546Z,14.2
2022-07-28T15:48:11.623Z,14.2
2022-07-28T16:03:42.148Z,14.2
2022-07-28T16:18:12.452Z,14.1
2022-07-28T16:33:12.840Z,14
2022-07-28T16:48:19.640Z,13.8
2022-07-28T17:03:15.059Z,13.6
2022-07-28T17:18:21.272Z,13.5
2022-07-28T17:33:34.439Z,13.3
2022-07-28T17:48:22.156Z,13.2
2022-07-28T18:03:23.792Z,13.1
2022-07-28T18:18:21.898Z,13
2022-07-28T18:33:22.614Z,12.9
2022-07-28T18:48:23.697Z,12.9
2022-07-28T19:03:24.663Z,12.8
2022-07-28T19:18:25.216Z,12.8
2022-07-28T19:33:26.301Z,12.7
2022-07-28T19:48:26.491Z,12.7
2022-07-28T20:04:06.710Z,12.7
2022-07-28T20:18:28.555Z,12.6
2022-07-28T20:33:30.145Z,12.6
2022-07-28T20:48:30.735Z,12.6
2022-07-28T21:03:04.272Z,12.5
2022-07-28T21:18:04.264Z,12.5
2022-07-28T21:33:06.355Z,12.5
2022-07-28T21:48:07.262Z,12.5
2022-07-28T22:03:12.076Z,12.5
2022-07-28T22:18:23.420Z,12.5
2022-07-28T22:33:09.760Z,12.5
2022-07-28T22:48:15.187Z,12.5
2022-07-28T23:03:17.364Z,12.5
2022-07-28T23:18:13.164Z,12.5
2022-07-28T23:33:58.968Z,12.5
2022-07-28T23:48:14.297Z,12.5
